createdAt,value
2019-01-06T00:00:17.858Z,8.17
2019-01-06T00:02:51.765Z,7.63
2019-01-06T00:05:23.190Z,6.60
2019-01-06T00:08:00.200Z,3.73
2019-01-06T00:10:47.829Z,7.10
2019-01-06T00:13:33.771Z,3.40
2019-01-06T00:16:07.530Z,3.27
2019-01-06T00:18:54.741Z,3.77
2019-01-06T00:21:41.772Z,2.73
2019-01-06T00:24:15.886Z,2.47
2019-01-06T00:27:03.207Z,4.30
2019-01-06T00:29:43.866Z,2.93
2019-01-06T00:32:26.794Z,2.00
2019-01-06T00:34:57.639Z,3.10
2019-01-06T00:37:31.778Z,3.13
2019-01-06T00:40:02.882Z,1.83
2019-01-06T00:42:33.934Z,1.70
2019-01-06T00:45:19.816Z,4.17
2019-01-06T00:47:57.207Z,2.27
2019-01-06T00:50:28.452Z,3.20
2019-01-06T00:53:05.737Z,2.87
2019-01-06T00:55:53.171Z,2.47
2019-01-06T00:58:26.779Z,2.87
2019-01-06T01:01:13.624Z,2.53
2019-01-06T01:04:00.948Z,2.30
2019-01-06T01:06:43.624Z,2.93
2019-01-06T01:09:31.492Z,2.77
2019-01-06T01:12:18.457Z,4.13
2019-01-06T01:15:07.382Z,1.80
2019-01-06T01:17:55.005Z,2.10
2019-01-06T01:20:42.135Z,2.90
2019-01-06T01:23:12.890Z,2.83
2019-01-06T01:25:43.902Z,1.90
2019-01-06T01:28:29.763Z,2.03
2019-01-06T01:31:16.840Z,1.87
2019-01-06T01:33:53.390Z,1.83
2019-01-06T01:36:24.428Z,2.73
2019-01-06T01:39:10.741Z,1.73
2019-01-06T01:41:50.786Z,4.20
2019-01-06T01:44:37.944Z,3.37
2019-01-06T01:47:25.472Z,2.10
2019-01-06T01:49:56.534Z,1.87
2019-01-06T01:52:29.940Z,2.80
2019-01-06T01:55:03.838Z,2.20
2019-01-06T01:57:50.051Z,2.27
2019-01-06T02:00:21.075Z,6.57
2019-01-06T02:02:54.984Z,4.20
2019-01-06T02:05:38.330Z,3.67
2019-01-06T02:08:17.875Z,2.20
2019-01-06T02:10:54.634Z,3.67
2019-01-06T02:13:31.428Z,1.40
2019-01-06T02:16:02.264Z,2.23
2019-01-06T02:18:35.853Z,1.90
2019-01-06T02:21:26.256Z,3.63
2019-01-06T02:24:03.038Z,4.70
2019-01-06T02:26:36.857Z,1.90
2019-01-06T02:29:23.884Z,1.60
2019-01-06T02:32:00.887Z,4.23
2019-01-06T02:34:40.896Z,2.50
2019-01-06T02:37:12.043Z,2.20
2019-01-06T02:39:48.811Z,3.67
2019-01-06T02:42:38.284Z,2.43
2019-01-06T02:45:11.897Z,2.50
2019-01-06T02:47:45.388Z,2.20
2019-01-06T02:50:16.234Z,3.93
2019-01-06T02:52:47.072Z,2.33
2019-01-06T02:55:27.026Z,3.00
2019-01-06T02:58:16.491Z,4.77
2019-01-06T03:00:56.393Z,3.80
2019-01-06T03:06:21.966Z,3.17
2019-01-06T03:08:55.539Z,1.67
2019-01-06T03:11:42.805Z,3.10
2019-01-06T03:14:31.873Z,3.67
2019-01-06T03:17:18.169Z,2.33
2019-01-06T03:20:06.115Z,1.73
2019-01-06T03:22:45.756Z,2.63
2019-01-06T03:25:22.627Z,3.57
2019-01-06T03:27:53.579Z,4.40
2019-01-06T03:30:24.728Z,2.40
2019-01-06T03:32:58.454Z,4.53
2019-01-06T03:35:38.274Z,2.60
2019-01-06T03:38:15.600Z,3.47
2019-01-06T03:41:05.237Z,4.07
2019-01-06T03:43:36.184Z,2.57
2019-01-06T03:46:23.302Z,3.47
2019-01-06T03:49:06.225Z,2.77
2019-01-06T03:51:37.259Z,2.70
2019-01-06T03:54:10.618Z,3.27
2019-01-06T03:56:49.904Z,2.63
2019-01-06T03:59:27.381Z,2.97
2019-01-06T04:02:00.691Z,1.97
2019-01-06T04:04:31.821Z,2.23
2019-01-06T04:07:03.001Z,3.23
2019-01-06T04:09:39.544Z,5.43
2019-01-06T04:12:10.390Z,2.07
2019-01-06T04:14:59.349Z,2.10
2019-01-06T04:17:30.188Z,2.13
2019-01-06T04:20:01.227Z,2.60
2019-01-06T04:22:32.703Z,2.03
2019-01-06T04:25:19.071Z,1.83
2019-01-06T04:27:52.883Z,2.80
2019-01-06T04:30:39.384Z,2.23
2019-01-06T04:33:19.541Z,1.77
2019-01-06T04:35:50.681Z,2.03
2019-01-06T04:38:24.496Z,2.80
2019-01-06T04:41:07.513Z,2.57
2019-01-06T04:43:44.410Z,1.77
2019-01-06T04:46:21.081Z,1.40
2019-01-06T04:49:08.506Z,1.50
2019-01-06T04:51:48.253Z,3.73
2019-01-06T04:54:21.850Z,3.20
2019-01-06T04:56:58.510Z,2.00
2019-01-06T04:59:41.660Z,2.63
2019-01-06T05:02:24.576Z,3.03
2019-01-06T05:05:11.801Z,1.70
2019-01-06T05:07:42.928Z,2.00
2019-01-06T05:10:30.063Z,2.30
2019-01-06T05:13:10.011Z,1.60
2019-01-06T05:15:41.403Z,2.13
2019-01-06T05:18:12.186Z,2.40
2019-01-06T05:20:55.257Z,1.80
2019-01-06T05:23:41.994Z,2.00
2019-01-06T05:26:28.891Z,1.80
2019-01-06T05:29:05.727Z,3.50
2019-01-06T05:31:42.801Z,2.97
2019-01-06T05:34:13.950Z,4.73
2019-01-06T05:36:57.040Z,2.97
2019-01-06T05:39:35.486Z,4.67
2019-01-06T05:42:09.755Z,2.60
2019-01-06T05:44:40.557Z,3.93
2019-01-06T05:47:29.515Z,2.60
2019-01-06T05:50:12.540Z,2.30
2019-01-06T05:52:49.506Z,4.93
2019-01-06T05:55:23.114Z,6.17
2019-01-06T05:57:56.708Z,3.23
2019-01-06T06:00:43.944Z,2.60
2019-01-06T06:03:17.365Z,3.43
2019-01-06T06:05:54.521Z,3.10
2019-01-06T06:08:31.295Z,2.97
2019-01-06T06:11:11.663Z,3.17
2019-01-06T06:13:42.798Z,4.33
2019-01-06T06:16:22.748Z,3.33
2019-01-06T06:18:59.736Z,3.70
2019-01-06T06:21:46.133Z,3.60
2019-01-06T06:24:19.954Z,3.67
2019-01-06T06:27:07.374Z,4.40
2019-01-06T06:29:38.523Z,5.03
2019-01-06T06:32:15.099Z,5.43
2019-01-06T06:35:01.492Z,5.00
2019-01-06T06:37:32.646Z,5.20
2019-01-06T06:40:12.642Z,7.07
2019-01-06T06:42:43.436Z,5.00
2019-01-06T06:45:14.448Z,5.10
2019-01-06T06:48:01.700Z,5.90
2019-01-06T06:50:51.062Z,5.20
2019-01-06T06:53:21.909Z,6.73
2019-01-06T06:55:56.009Z,5.70
2019-01-06T06:58:38.931Z,6.10
2019-01-06T07:01:42.119Z,5.77
2019-01-06T07:04:31.003Z,9.57
2019-01-06T07:07:18.005Z,5.17
2019-01-06T07:09:57.539Z,6.80
2019-01-06T07:12:34.544Z,5.77
2019-01-06T07:15:11.215Z,5.53
2019-01-06T07:17:50.381Z,5.10
2019-01-06T07:20:45.250Z,6.33
2019-01-06T07:23:16.276Z,5.90
2019-01-06T07:25:56.125Z,6.47
2019-01-06T07:28:27.286Z,6.57
2019-01-06T07:31:01.183Z,8.37
2019-01-06T07:33:32.136Z,6.73
2019-01-06T07:36:19.053Z,7.13
2019-01-06T07:39:06.976Z,6.00
2019-01-06T07:41:38.019Z,6.60
2019-01-06T07:44:14.912Z,7.67
2019-01-06T07:47:01.828Z,6.53
2019-01-06T07:49:38.500Z,6.30
2019-01-06T07:52:12.104Z,8.10
2019-01-06T07:54:59.016Z,12.70
2019-01-06T07:57:33.023Z,12.37
2019-01-06T08:00:15.189Z,10.90
2019-01-06T08:02:58.531Z,8.40
2019-01-06T08:05:32.028Z,7.67
2019-01-06T08:08:19.585Z,6.90
2019-01-06T08:10:59.738Z,7.77
2019-01-06T08:13:30.888Z,8.80
2019-01-06T08:16:01.730Z,6.67
2019-01-06T08:18:45.254Z,9.33
2019-01-06T08:21:21.840Z,8.73
2019-01-06T08:24:09.162Z,8.57
2019-01-06T08:26:56.238Z,7.63
2019-01-06T08:29:39.402Z,9.57
2019-01-06T08:32:10.352Z,8.77
2019-01-06T08:34:57.562Z,7.87
2019-01-06T08:37:44.587Z,6.17
2019-01-06T08:40:24.734Z,7.60
2019-01-06T08:42:55.872Z,6.80
2019-01-06T08:45:43.134Z,7.40
2019-01-06T08:48:17.003Z,7.07
2019-01-06T08:50:48.165Z,7.80
2019-01-06T08:53:19.603Z,7.17
2019-01-06T08:56:05.815Z,9.67
2019-01-06T08:58:54.367Z,7.10
2019-01-06T09:01:25.396Z,9.37
2019-01-06T09:04:14.361Z,9.27
2019-01-06T09:06:48.479Z,10.17
2019-01-06T09:09:28.321Z,9.77
2019-01-06T09:12:17.809Z,9.80
2019-01-06T09:14:51.821Z,9.20
2019-01-06T09:17:38.723Z,9.20
2019-01-06T09:20:30.659Z,7.33
2019-01-06T09:23:07.141Z,8.00
2019-01-06T09:25:41.435Z,6.87
2019-01-06T09:28:12.462Z,8.23
2019-01-06T09:30:59.964Z,8.07
2019-01-06T09:33:36.789Z,7.70
2019-01-06T09:36:24.854Z,9.80
2019-01-06T09:39:11.872Z,7.30
2019-01-06T09:41:48.679Z,9.27
2019-01-06T09:44:35.776Z,6.03
2019-01-06T09:47:18.925Z,6.10
2019-01-06T09:49:55.234Z,6.37
2019-01-06T09:52:31.727Z,7.80
2019-01-06T09:55:05.309Z,6.07
2019-01-06T09:57:52.138Z,5.73
2019-01-06T10:00:39.359Z,7.43
2019-01-06T10:03:26.478Z,6.93
2019-01-06T10:06:00.068Z,7.60
2019-01-06T10:08:46.067Z,5.97
2019-01-06T10:11:33.287Z,5.13
2019-01-06T10:14:04.134Z,5.87
2019-01-06T10:16:58.461Z,4.57
2019-01-06T10:19:35.289Z,7.53
2019-01-06T10:22:14.945Z,5.10
2019-01-06T10:24:52.076Z,7.80
2019-01-06T10:27:23.429Z,6.33
2019-01-06T10:29:54.511Z,5.50
2019-01-06T10:32:40.705Z,5.27
2019-01-06T10:35:11.661Z,4.77
2019-01-06T10:37:58.047Z,5.20
2019-01-06T10:40:45.488Z,6.07
2019-01-06T10:43:16.328Z,7.03
2019-01-06T10:45:55.670Z,9.10
2019-01-06T10:48:26.504Z,5.90
2019-01-06T10:50:57.340Z,4.30
2019-01-06T10:53:40.763Z,4.37
2019-01-06T10:56:23.493Z,5.27
2019-01-06T10:58:57.901Z,5.87
2019-01-06T11:01:29.149Z,3.73
2019-01-06T11:04:16.461Z,4.30
2019-01-06T11:06:47.229Z,4.10
2019-01-06T11:09:24.100Z,5.03
2019-01-06T11:12:03.952Z,9.83
2019-01-06T11:14:38.049Z,3.97
2019-01-06T11:17:09.193Z,7.97
2019-01-06T11:19:40.043Z,6.73
2019-01-06T11:22:17.333Z,5.67
2019-01-06T11:24:54.415Z,5.40
2019-01-06T11:27:42.141Z,5.13
2019-01-06T11:30:13.606Z,9.03
2019-01-06T11:32:44.756Z,5.40
2019-01-06T11:35:23.555Z,4.50
2019-01-06T11:38:03.520Z,5.87
2019-01-06T11:40:52.587Z,6.07
2019-01-06T11:43:23.797Z,3.70
2019-01-06T11:45:57.689Z,5.83
2019-01-06T11:48:34.831Z,3.93
2019-01-06T11:51:05.665Z,4.57
2019-01-06T11:53:42.067Z,3.43
2019-01-06T11:56:29.357Z,4.37
2019-01-06T11:59:00.805Z,4.57
2019-01-06T12:01:37.784Z,4.10
2019-01-06T12:04:14.571Z,4.23
2019-01-06T12:06:48.477Z,3.20
2019-01-06T12:09:35.592Z,3.93
2019-01-06T12:12:16.066Z,5.70
2019-01-06T12:15:04.922Z,5.27
2019-01-06T12:17:44.959Z,4.93
2019-01-06T12:20:18.676Z,5.30
2019-01-06T12:22:58.833Z,4.77
2019-01-06T12:25:45.786Z,5.30
2019-01-06T12:28:34.872Z,4.03
2019-01-06T12:31:11.631Z,3.53
2019-01-06T12:33:45.277Z,5.27
2019-01-06T12:36:25.582Z,4.23
2019-01-06T12:38:59.066Z,4.00
2019-01-06T12:41:42.232Z,6.47
2019-01-06T12:44:30.961Z,4.70
2019-01-06T12:47:13.749Z,3.93
2019-01-06T12:50:00.498Z,5.40
2019-01-06T12:52:46.368Z,4.63
2019-01-06T12:55:19.940Z,4.60
2019-01-06T12:57:53.748Z,4.57
2019-01-06T13:00:24.554Z,3.70
2019-01-06T13:03:11.986Z,4.80
2019-01-06T13:05:55.092Z,4.60
2019-01-06T13:08:32.071Z,10.33
2019-01-06T13:11:19.352Z,5.60
2019-01-06T13:14:06.192Z,4.57
2019-01-06T13:16:53.461Z,4.33
2019-01-06T13:19:40.158Z,5.17
2019-01-06T13:22:27.250Z,15.30
2019-01-06T13:25:16.713Z,10.07
2019-01-06T13:27:53.507Z,11.70
2019-01-06T13:30:40.540Z,11.03
2019-01-06T13:33:27.989Z,5.53
2019-01-06T13:36:04.795Z,5.27
2019-01-06T13:38:36.163Z,5.13
2019-01-06T13:41:24.895Z,4.30
2019-01-06T13:44:01.372Z,4.33
2019-01-06T13:46:50.744Z,5.13
2019-01-06T13:49:24.431Z,3.60
2019-01-06T13:52:07.679Z,4.43
2019-01-06T13:54:54.892Z,7.33
2019-01-06T13:57:42.527Z,5.73
2019-01-06T14:00:30.164Z,7.57
2019-01-06T14:03:07.351Z,6.03
2019-01-06T14:05:43.954Z,6.57
2019-01-06T14:08:30.895Z,5.83
2019-01-06T14:11:17.856Z,7.33
2019-01-06T14:13:51.458Z,7.07
2019-01-06T14:16:38.679Z,7.33
2019-01-06T14:19:09.413Z,6.23
2019-01-06T14:21:56.571Z,9.00
2019-01-06T14:24:36.588Z,6.87
2019-01-06T14:27:24.108Z,8.70
2019-01-06T14:30:11.838Z,8.93
2019-01-06T14:32:54.970Z,12.10
2019-01-06T14:35:26.108Z,10.17
2019-01-06T14:37:57.248Z,9.13
2019-01-06T14:40:28.102Z,8.50
2019-01-06T14:43:15.413Z,8.03
2019-01-06T14:45:55.383Z,10.23
2019-01-06T14:48:32.842Z,7.57
2019-01-06T14:51:18.806Z,9.63
2019-01-06T14:54:05.602Z,7.60
2019-01-06T14:56:36.412Z,9.77
2019-01-06T14:59:07.467Z,9.67
2019-01-06T15:01:54.903Z,10.00
2019-01-06T15:04:41.722Z,8.53
2019-01-06T15:07:29.601Z,9.90
2019-01-06T15:10:00.633Z,8.67
2019-01-06T15:12:31.423Z,9.90
2019-01-06T15:15:05.515Z,10.60
2019-01-06T15:17:39.320Z,8.63
2019-01-06T15:20:26.960Z,8.77
2019-01-06T15:23:13.907Z,7.57
2019-01-06T15:25:47.658Z,9.23
2019-01-06T15:28:33.336Z,10.87
2019-01-06T15:31:20.743Z,8.50
2019-01-06T15:33:57.232Z,10.13
2019-01-06T15:36:31.540Z,9.50
2019-01-06T15:39:02.585Z,12.60
2019-01-06T15:41:39.303Z,10.20
2019-01-06T15:44:22.485Z,10.87
2019-01-06T15:46:59.102Z,10.67
2019-01-06T15:49:33.007Z,10.67
2019-01-06T15:52:09.278Z,10.93
2019-01-06T15:54:40.041Z,8.53
2019-01-06T15:57:10.838Z,10.93
2019-01-06T15:59:54.166Z,12.50
2019-01-06T16:02:41.679Z,11.53
2019-01-06T16:05:29.309Z,10.90
2019-01-06T16:08:00.101Z,10.57
2019-01-06T16:10:46.140Z,11.40
2019-01-06T16:13:19.994Z,9.83
2019-01-06T16:15:54.001Z,9.13
2019-01-06T16:18:25.059Z,10.07
2019-01-06T16:20:58.623Z,10.03
2019-01-06T16:23:30.092Z,9.13
2019-01-06T16:26:17.612Z,13.50
2019-01-06T16:28:48.449Z,13.40
2019-01-06T16:31:25.471Z,10.10
2019-01-06T16:33:56.800Z,11.57
2019-01-06T16:36:27.587Z,12.47
2019-01-06T16:38:58.627Z,12.67
2019-01-06T16:41:35.247Z,11.47
2019-01-06T16:44:06.353Z,13.30
2019-01-06T16:46:53.610Z,15.43
2019-01-06T16:49:39.351Z,12.00
2019-01-06T16:52:11.899Z,10.63
2019-01-06T16:55:01.320Z,13.97
2019-01-06T16:57:38.454Z,11.83
2019-01-06T17:00:13.155Z,12.53
2019-01-06T17:02:47.162Z,10.30
2019-01-06T17:05:20.967Z,14.07
2019-01-06T17:08:08.227Z,14.27
2019-01-06T17:10:39.340Z,12.97
2019-01-06T17:13:13.049Z,16.13
2019-01-06T17:15:49.825Z,14.90
2019-01-06T17:18:23.427Z,13.37
2019-01-06T17:20:56.721Z,14.90
2019-01-06T17:23:45.683Z,17.03
2019-01-06T17:26:25.327Z,13.80
2019-01-06T17:28:59.133Z,15.73
2019-01-06T17:31:32.843Z,14.90
2019-01-06T17:34:03.887Z,13.80
2019-01-06T17:36:47.506Z,15.60
2019-01-06T17:39:36.622Z,11.60
2019-01-06T17:42:07.434Z,11.50
2019-01-06T17:44:54.257Z,11.40
2019-01-06T17:47:28.231Z,12.03
2019-01-06T17:50:15.403Z,13.93
2019-01-06T17:53:02.739Z,13.77
2019-01-06T17:55:34.093Z,12.87
2019-01-06T17:58:07.640Z,12.80
2019-01-06T18:00:41.651Z,17.93
2019-01-06T18:03:12.712Z,16.73
2019-01-06T18:06:01.517Z,14.57
2019-01-06T18:08:38.523Z,14.60
2019-01-06T18:11:11.761Z,14.43
2019-01-06T18:13:58.558Z,14.80
2019-01-06T18:16:38.292Z,14.20
2019-01-06T18:19:09.153Z,14.07
2019-01-06T18:21:57.001Z,13.67
2019-01-06T18:24:46.439Z,14.13
2019-01-06T18:27:33.211Z,13.80
2019-01-06T18:30:04.291Z,13.90
2019-01-06T18:32:44.141Z,25.03
2019-01-06T18:35:14.979Z,22.90
2019-01-06T18:37:55.444Z,25.27
2019-01-06T18:40:26.582Z,22.53
2019-01-06T18:43:00.505Z,23.90
2019-01-06T18:45:40.262Z,19.30
2019-01-06T18:48:26.550Z,19.33
2019-01-06T18:51:06.731Z,15.20
2019-01-06T18:53:40.191Z,15.90
2019-01-06T18:56:13.433Z,14.00
2019-01-06T18:58:59.826Z,13.60
2019-01-06T19:01:40.059Z,12.33
2019-01-06T19:04:27.266Z,12.07
2019-01-06T19:06:58.317Z,14.13
2019-01-06T19:09:29.567Z,16.97
2019-01-06T19:12:12.079Z,16.90
2019-01-06T19:14:59.396Z,12.90
2019-01-06T19:17:41.400Z,16.93
2019-01-06T19:20:11.711Z,15.33
2019-01-06T19:22:42.562Z,16.53
2019-01-06T19:25:32.856Z,16.23
2019-01-06T19:28:28.837Z,24.17
2019-01-06T19:31:02.823Z,25.43
2019-01-06T19:33:33.943Z,26.60
2019-01-06T19:36:04.780Z,29.50
2019-01-06T19:38:52.196Z,25.40
2019-01-06T19:41:41.072Z,28.43
2019-01-06T19:44:14.859Z,26.27
2019-01-06T19:47:03.833Z,26.93
2019-01-06T19:49:50.953Z,26.67
2019-01-06T19:52:24.335Z,27.63
2019-01-06T19:55:01.127Z,25.93
2019-01-06T19:57:49.072Z,25.80
2019-01-06T20:00:25.936Z,31.27
2019-01-06T20:03:08.662Z,30.73
2019-01-06T20:05:54.756Z,31.57
2019-01-06T20:08:25.596Z,31.40
2019-01-06T20:11:12.517Z,31.87
2019-01-06T20:13:55.536Z,30.47
2019-01-06T20:16:35.578Z,29.20
2019-01-06T20:19:09.652Z,37.50
2019-01-06T20:21:45.963Z,32.10
2019-01-06T20:24:33.894Z,31.57
2019-01-06T20:27:13.762Z,27.03
2019-01-06T20:29:56.669Z,37.23
2019-01-06T20:32:36.734Z,35.00
2019-01-06T20:35:24.363Z,55.17
2019-01-06T20:38:10.466Z,35.50
2019-01-06T20:40:41.616Z,35.50
2019-01-06T20:43:21.144Z,32.13
2019-01-06T20:45:52.180Z,31.63
2019-01-06T20:48:23.381Z,26.17
2019-01-06T20:50:56.930Z,33.67
2019-01-06T20:53:34.528Z,29.40
2019-01-06T20:56:21.544Z,29.40
2019-01-06T20:58:58.220Z,24.17
2019-01-06T21:01:45.237Z,31.30
2019-01-06T21:04:21.577Z,29.23
2019-01-06T21:07:08.619Z,28.23
2019-01-06T21:09:39.702Z,30.37
2019-01-06T21:12:29.133Z,29.83
2019-01-06T21:15:16.518Z,25.30
2019-01-06T21:17:47.792Z,27.30
2019-01-06T21:20:18.948Z,24.63
2019-01-06T21:23:07.474Z,27.67
2019-01-06T21:25:54.425Z,29.63
2019-01-06T21:28:25.260Z,32.70
2019-01-06T21:31:12.167Z,25.53
2019-01-06T21:33:43.469Z,31.97
2019-01-06T21:36:30.840Z,29.07
2019-01-06T21:39:13.772Z,29.87
2019-01-06T21:42:02.731Z,27.63
2019-01-06T21:44:51.906Z,31.23
2019-01-06T21:47:25.939Z,30.50
2019-01-06T21:49:57.069Z,32.13
2019-01-06T21:52:30.659Z,32.33
2019-01-06T21:55:07.740Z,30.27
2019-01-06T21:57:44.920Z,31.07
2019-01-06T22:00:28.058Z,28.90
2019-01-06T22:03:15.338Z,35.13
2019-01-06T22:05:55.125Z,28.20
2019-01-06T22:08:42.041Z,31.13
2019-01-06T22:11:13.074Z,27.70
2019-01-06T22:13:48.828Z,27.90
2019-01-06T22:16:38.209Z,31.00
2019-01-06T22:19:25.207Z,28.33
2019-01-06T22:22:12.333Z,25.70
2019-01-06T22:24:43.140Z,32.30
2019-01-06T22:27:22.835Z,28.63
2019-01-06T22:30:03.044Z,25.67
2019-01-06T22:32:39.791Z,33.87
2019-01-06T22:35:26.737Z,33.53
2019-01-06T22:38:15.801Z,31.90
2019-01-06T22:40:46.563Z,29.93
2019-01-06T22:43:33.374Z,29.73
2019-01-06T22:46:07.355Z,29.60
2019-01-06T22:48:54.773Z,29.40
2019-01-06T22:51:40.617Z,30.43
2019-01-06T22:54:27.430Z,29.33
2019-01-06T22:57:00.887Z,27.77
2019-01-06T22:59:48.326Z,29.20
2019-01-06T23:02:31.134Z,30.43
2019-01-06T23:05:04.609Z,30.23
2019-01-06T23:07:41.973Z,33.37
2019-01-06T23:10:15.543Z,28.80
2019-01-06T23:12:49.106Z,29.93
2019-01-06T23:15:28.833Z,29.50
2019-01-06T23:18:02.425Z,30.13
2019-01-06T23:20:49.821Z,25.30
2019-01-06T23:23:29.715Z,25.60
2019-01-06T23:26:02.135Z,27.17
2019-01-06T23:28:36.086Z,25.00
2019-01-06T23:31:22.999Z,25.40
2019-01-06T23:34:02.769Z,25.73
2019-01-06T23:36:33.792Z,24.27
2019-01-06T23:39:07.932Z,27.83
2019-01-06T23:44:44.565Z,26.73
2019-01-06T23:47:31.997Z,25.60
2019-01-06T23:50:09.181Z,29.07
2019-01-06T23:52:40.005Z,25.50
2019-01-06T23:55:27.035Z,27.00
2019-01-06T23:58:13.143Z,24.47
